8B0 weather

Steven A. Bean Municipal Airport
Rangeley, Maine, United States

Public forecast

Using degrees Fahrenheit for public forecast. Weather courtesy of forecast.io.

Closest aviation weather report (METAR) to Steven A. Bean Municipal Airport

Closest report is Berlin Regional Airport, 33.2 nm (61.4 km) SW. Retrieved 2019/10/14 04:40 UTC (0 seconds ago):

KBML 140440Z AUTO 00000KT 10SM SCT001 00/M01 A3002 RMK AO2 T00001011

Closest aviation forecast (TAF) to Steven A. Bean Municipal Airport

Closest forecast is Sherbrooke Airport, 51.0 nm (94.5 km) WNW. Retrieved 2019-10-14 00:00 UTC (5 hours ago):

TAF CYSC 132338Z 1400/1403 VRB03KT P6SM FEW240 RMK FCST BASED ON AUTO OBS NXT FCST WILL BE ISSUED AT 141045Z